.
WxDataArchive / Data Records for 2009-03-10
2009-03-09 March 2009 2009-03-11

Data Records for Tuesday, 10 March 2009

Time	Temp	Chill	HIndex	Humid	Dewpt	 Wind 	HiWind	WindDir	Rain 	Barom 
-----	----	-----	------	-----	-----	------	------	-------	-----	----- 
00:00	39.3	39.3	39.3	86	35.5	2	4	90	0.00	30.174 
00:05	39.2	39.2	39.2	86	35.4	2	5	112	0.00	30.168 
00:10	39.2	39.2	39.2	86	35.4	2	4	112	0.00	30.165 
00:15	39.2	39.2	39.2	86	35.4	2	4	112	0.00	30.166 
00:20	39.2	39.2	39.2	86	35.4	2	5	90	0.00	30.166 
00:25	39.3	39.3	39.3	86	35.5	3	5	90	0.00	30.164 
00:30	39.3	39.3	39.3	86	35.5	2	6	112	0.00	30.162 
00:35	39.5	39.5	39.5	86	35.7	3	5	90	0.00	30.158 
00:40	39.5	39.5	39.5	86	35.7	2	5	90	0.00	30.152 
00:45	39.6	39.6	39.6	85	35.5	3	6	90	0.00	30.150 
00:50	39.6	39.6	39.6	85	35.5	3	5	90	0.00	30.148 
00:55	39.6	39.6	39.6	85	35.5	3	5	90	0.00	30.148 
01:00	39.8	39.8	39.8	85	35.7	2	5	112	0.00	30.148 
01:05	39.8	39.8	39.8	85	35.7	2	4	112	0.00	30.144 
01:10	39.8	39.8	39.8	85	35.7	3	6	90	0.00	30.135 
01:15	39.8	39.8	39.8	85	35.7	3	6	112	0.00	30.134 
01:20	39.9	39.9	39.9	85	35.8	3	7	112	0.00	30.129 
01:25	39.9	39.9	39.9	85	35.8	3	6	90	0.00	30.130 
01:30	39.9	39.9	39.9	85	35.8	3	6	90	0.00	30.121 
01:35	39.9	39.9	39.9	85	35.8	3	5	90	0.00	30.119 
01:40	39.9	39.9	39.9	85	35.8	3	6	90	0.00	30.117 
01:45	39.9	37.2	39.9	85	35.8	4	11	90	0.00	30.103 
01:50	39.9	39.9	39.9	85	35.8	2	11	90	0.00	30.123 
01:55	39.9	39.9	39.9	85	35.8	2	7	112	0.00	30.131 
02:00	39.9	39.9	39.9	85	35.8	1	4	112	0.00	30.132 
02:05	40.1	40.1	40.1	85	36.0	2	6	112	0.00	30.127 
02:10	40.1	40.1	40.1	85	36.0	3	4	112	0.00	30.126 
02:15	40.1	40.1	40.1	85	36.0	3	9	112	0.00	30.108 
02:20	40.1	40.1	40.1	85	36.0	3	7	112	0.00	30.107 
02:25	40.1	37.4	40.1	85	36.0	4	7	112	0.00	30.096 
02:30	40.1	40.1	40.1	85	36.0	3	7	112	0.00	30.090 
02:35	40.1	40.1	40.1	85	36.0	3	6	112	0.00	30.088 
02:40	40.1	37.4	40.1	85	36.0	4	6	112	0.00	30.080 
02:45	40.1	40.1	40.1	85	36.0	3	8	90	0.00	30.075 
02:50	40.1	37.4	40.1	85	36.0	4	10	90	0.00	30.070 
02:55	40.1	35.9	40.1	85	36.0	6	12	112	0.00	30.057 
03:00	40.1	40.1	40.1	85	36.0	2	7	90	0.00	30.065 
03:05	40.1	40.1	40.1	85	36.0	3	9	90	0.00	30.069 
03:10	40.1	40.1	40.1	85	36.0	3	6	90	0.00	30.067 
03:15	40.1	40.1	40.1	85	36.0	3	8	112	0.00	30.065 
03:20	40.1	40.1	40.1	85	36.0	3	6	90	0.00	30.063 
03:25	40.1	37.4	40.1	85	36.0	4	7	112	0.00	30.052 
03:30	40.1	40.1	40.1	85	36.0	3	7	90	0.00	30.050 
03:35	40.1	37.4	40.1	85	36.0	4	9	90	0.00	30.042 
03:40	40.1	37.4	40.1	85	36.0	4	7	90	0.00	30.036 
03:45	40.1	36.6	40.1	85	36.0	5	11	112	0.00	30.021 
03:50	40.1	37.4	40.1	85	36.0	4	8	112	0.00	30.005 
03:55	40.1	36.6	40.1	85	36.0	5	11	112	0.00	29.996 
04:00	40.1	37.4	40.1	85	36.0	4	10	90	0.00	29.999 
04:05	40.1	36.6	40.1	85	36.0	5	8	112	0.00	29.992 
04:10	40.2	37.5	40.2	84	35.8	4	11	112	0.00	30.004 
04:15	40.3	40.3	40.3	84	35.9	1	4	90	0.00	30.037 
04:20	40.3	40.3	40.3	84	35.9	0	3	158	0.00	30.068 
04:25	40.5	40.5	40.5	84	36.1	1	4	135	0.00	30.060 
04:30	40.5	40.5	40.5	84	36.1	1	4	90	0.00	30.043 
04:35	40.5	40.5	40.5	84	36.1	1	2	90	0.00	30.050 
04:40	40.5	40.5	40.5	84	36.1	1	4	90	0.00	30.046 
04:45	40.5	40.5	40.5	84	36.1	2	7	90	0.00	30.050 
04:50	40.5	40.5	40.5	84	36.1	1	2	90	0.00	30.055 
04:55	40.5	40.5	40.5	85	36.4	0	2	90	0.00	30.056 
05:00	40.5	40.5	40.5	85	36.4	1	2	90	0.00	30.049 
05:05	40.5	40.5	40.5	85	36.4	1	4	90	0.00	30.037 
05:10	40.3	40.3	40.3	85	36.2	2	4	90	0.00	30.036 
05:15	40.3	40.3	40.3	86	36.5	3	5	90	0.00	30.028 
05:20	40.3	40.3	40.3	86	36.5	3	5	112	0.00	30.034 
05:25	40.3	37.7	40.3	86	36.5	4	9	90	0.00	30.023 
05:30	40.3	40.3	40.3	87	36.7	2	5	112	0.00	30.022 
05:35	40.3	40.3	40.3	87	36.7	2	6	90	0.00	30.022 
05:40	40.3	40.3	40.3	87	36.7	2	10	90	0.00	30.021 
05:45	40.3	40.3	40.3	88	37.0	2	5	112	0.00	30.020 
05:50	40.5	40.5	40.5	88	37.2	1	6	112	0.00	30.017 
05:55	40.3	40.3	40.3	88	37.0	2	5	90	0.00	30.005 
06:00	40.3	40.3	40.3	89	37.3	3	7	90	0.01	30.003 
06:05	40.3	40.3	40.3	89	37.3	3	7	90	0.00	30.004 
06:10	40.3	40.3	40.3	89	37.3	3	7	112	0.00	30.002 
06:15	40.5	40.5	40.5	89	37.5	3	6	90	0.00	29.999 
06:20	40.5	40.5	40.5	89	37.5	2	6	112	0.01	30.001 
06:25	40.5	40.5	40.5	90	37.8	2	6	112	0.00	29.997 
06:30	40.5	40.5	40.5	90	37.8	1	4	112	0.01	30.004 
06:35	40.5	40.5	40.5	90	37.8	1	4	90	0.02	30.007 
06:40	40.5	40.5	40.5	91	38.1	2	6	112	0.00	30.006 
06:45	40.3	40.3	40.3	91	37.9	3	5	90	0.01	29.992 
06:50	40.3	40.3	40.3	91	37.9	3	6	112	0.01	29.990 
06:55	40.3	36.8	40.3	92	38.2	5	9	112	0.01	29.974 
07:00	40.2	36.7	40.2	92	38.1	5	11	112	0.02	29.948 
07:05	40.1	35.3	40.1	92	38.0	7	12	90	0.00	29.947 
07:10	40.1	35.9	40.1	93	38.2	6	12	90	0.01	29.952 
07:15	40.2	36.7	40.2	93	38.3	5	11	112	0.01	29.949 
07:20	40.2	36.7	40.2	93	38.3	5	11	90	0.03	29.945 
07:25	40.3	40.3	40.3	93	38.4	3	6	112	0.01	29.946 
07:30	40.5	40.5	40.5	94	38.9	2	9	112	0.01	29.960 
07:35	40.5	40.5	40.5	94	38.9	2	6	90	0.02	29.959 
07:40	40.6	40.6	40.6	94	39.0	2	5	112	0.04	29.959 
07:45	40.6	40.6	40.6	94	39.0	3	6	90	0.02	29.952 
07:50	40.6	40.6	40.6	94	39.0	3	7	112	0.02	29.953 
07:55	40.6	40.6	40.6	94	39.0	2	6	90	0.01	29.959 
08:00	40.6	40.6	40.6	94	39.0	2	6	68	0.02	29.959 
08:05	40.6	40.6	40.6	95	39.3	3	11	112	0.05	29.962 
08:10	40.8	40.8	40.8	95	39.5	1	5	90	0.06	29.973 
08:15	40.9	40.9	40.9	95	39.6	1	3	68	0.05	29.972 
08:20	40.9	40.9	40.9	95	39.6	3	9	90	0.03	29.957 
08:25	40.9	40.9	40.9	95	39.6	3	7	112	0.01	29.950 
08:30	40.8	38.2	40.8	95	39.5	4	11	112	0.01	29.942 
08:35	40.9	38.4	40.9	95	39.6	4	9	90	0.02	29.949 
08:40	40.9	40.9	40.9	95	39.6	3	10	90	0.02	29.942 
08:45	41.1	41.1	41.1	96	40.0	3	7	90	0.01	29.944 
08:50	41.1	41.1	41.1	96	40.0	3	9	90	0.01	29.944 
08:55	41.1	41.1	41.1	96	40.0	3	9	112	0.00	29.943 
09:00	41.2	41.2	41.2	96	40.1	3	7	112	0.00	29.941 
09:05	41.2	38.7	41.2	96	40.1	4	9	112	0.00	29.934 
09:10	41.6	38.4	41.6	96	40.5	5	10	90	0.00	29.935 
09:15	42.1	39.7	42.1	96	41.0	4	7	90	0.00	29.933 
09:20	42.2	39.9	42.2	96	41.1	4	7	112	0.00	29.931 
09:25	42.2	39.9	42.2	96	41.1	4	7	90	0.00	29.928 
09:30	42.3	42.3	42.3	96	41.2	3	7	112	0.00	29.929 
09:35	42.5	42.5	42.5	96	41.4	3	6	112	0.00	29.928 
09:40	42.5	40.2	42.5	96	41.4	4	7	90	0.00	29.921 
09:45	42.6	42.6	42.6	96	41.5	3	8	90	0.00	29.914 
09:50	42.6	42.6	42.6	96	41.5	3	6	112	0.00	29.913 
09:55	42.8	42.8	42.8	96	41.7	2	6	90	0.00	29.911 
10:00	42.9	42.9	42.9	96	41.8	2	6	112	0.00	29.910 
10:05	43.1	43.1	43.1	96	42.0	3	6	112	0.00	29.911 
10:10	43.2	41.0	43.2	96	42.1	4	7	112	0.00	29.905 
10:15	43.3	43.3	43.3	96	42.2	3	9	112	0.00	29.904 
10:20	43.5	43.5	43.5	96	42.4	3	6	112	0.00	29.900 
10:25	43.6	43.6	43.6	96	42.5	2	6	112	0.00	29.896 
10:30	43.8	43.8	43.8	96	42.7	2	4	112	0.00	29.895 
10:35	43.9	43.9	43.9	96	42.8	2	6	112	0.00	29.895 
10:40	44.1	44.1	44.1	96	43.0	1	6	90	0.00	29.895 
10:45	44.1	44.1	44.1	95	42.8	2	6	90	0.00	29.898 
10:50	44.2	44.2	44.2	95	42.9	2	5	112	0.00	29.897 
10:55	44.3	44.3	44.3	95	43.0	1	4	112	0.00	29.899 
11:00	44.5	44.5	44.5	95	43.2	2	5	112	0.00	29.898 
11:05	44.5	44.5	44.5	95	43.2	2	6	112	0.00	29.898 
11:10	44.6	44.6	44.6	95	43.3	2	5	112	0.00	29.897 
11:15	44.6	44.6	44.6	95	43.3	2	5	112	0.00	29.900 
11:20	44.9	44.9	44.9	95	43.6	1	4	112	0.00	29.895 
11:25	45.1	45.1	45.1	95	43.8	2	4	112	0.00	29.891 
11:30	45.5	45.5	45.5	95	44.2	1	4	112	0.00	29.889 
11:35	45.7	45.7	45.7	94	44.1	2	5	112	0.00	29.885 
11:40	45.7	45.7	45.7	94	44.1	3	5	112	0.00	29.879 
11:45	46.0	46.0	46.0	94	44.4	1	3	112	0.00	29.879 
11:50	46.2	46.2	46.2	94	44.6	1	4	112	0.00	29.879 
11:55	46.8	46.8	46.8	94	45.2	2	4	112	0.00	29.873 
12:00	47.4	47.4	47.4	94	45.8	2	4	90	0.00	29.869 
12:05	47.7	47.7	47.7	94	46.1	2	4	90	0.00	29.863 
12:10	48.2	48.2	48.2	93	46.3	2	3	135	0.00	29.860 
12:15	48.8	48.8	48.8	93	46.9	1	4	135	0.00	29.860 
12:20	49.4	49.4	49.4	92	47.2	2	4	112	0.00	29.859 
12:25	49.6	49.6	49.6	92	47.4	1	4	112	0.00	29.856 
12:30	50.2	50.2	50.2	92	48.0	1	3	112	0.00	29.852 
12:35	50.7	50.7	50.7	91	48.2	1	3	68	0.00	29.847 
12:40	51.1	51.1	51.1	91	48.6	0	3	112	0.00	29.843 
12:45	51.7	51.7	51.7	90	48.9	1	2	112	0.00	29.839 
12:50	51.9	51.9	51.9	89	48.8	1	3	135	0.00	29.838 
12:55	52.0	52.0	52.0	89	48.9	0	1	135	0.00	29.838 
13:00	52.3	52.3	52.3	89	49.2	0	2	135	0.00	29.836 
13:05	52.6	52.6	52.6	88	49.1	1	3	135	0.00	29.836 
13:10	53.1	53.1	53.1	88	49.6	0	1	135	0.00	29.830 
13:15	53.5	53.5	53.5	88	50.0	1	3	135	0.00	29.818 
13:20	54.4	54.4	54.4	88	50.9	1	3	135	0.00	29.809 
13:25	55.3	55.3	55.3	87	51.5	1	4	112	0.00	29.800 
13:30	56.2	56.2	56.2	87	52.4	0	2	112	0.00	29.792 
13:35	56.9	56.9	56.9	84	52.1	2	4	112	0.00	29.785 
13:40	57.8	57.8	57.8	84	53.0	1	5	112	0.00	29.782 
13:45	58.4	58.4	58.4	84	53.6	1	3	112	0.00	29.778 
13:50	59.2	59.2	59.2	84	54.4	1	4	292	0.00	29.779 
13:55	59.9	59.9	59.9	84	55.0	1	4	315	0.00	29.778 
14:00	61.2	61.2	61.2	84	56.3	1	3	248	0.00	29.781 
14:05	61.8	61.8	61.8	83	56.6	1	3	270	0.00	29.776 
14:10	62.6	62.6	62.6	82	57.0	1	5	248	0.00	29.776 
14:15	63.1	63.1	63.1	81	57.2	2	7	248	0.00	29.774 
14:20	63.7	63.7	63.7	80	57.4	2	6	248	0.00	29.767 
14:25	64.3	64.3	64.3	79	57.6	2	10	248	0.00	29.765 
14:30	64.8	64.8	64.8	77	57.4	3	7	248	0.00	29.766 
14:35	65.0	65.0	65.0	77	57.6	3	7	248	0.00	29.773 
14:40	65.2	65.2	65.2	77	57.8	3	7	248	0.00	29.767 
14:45	65.2	65.2	65.2	76	57.4	3	9	248	0.00	29.770 
14:50	65.2	65.2	65.2	77	57.8	3	6	248	0.00	29.769 
14:55	65.0	65.0	65.0	76	57.2	4	12	248	0.00	29.769 
15:00	65.0	65.0	65.0	77	57.6	2	7	248	0.00	29.763 
15:05	64.8	64.8	64.8	77	57.4	2	7	248	0.00	29.763 
15:10	65.0	65.0	65.0	77	57.6	2	5	248	0.00	29.760 
15:15	65.0	65.0	65.0	77	57.6	0	3	248	0.00	29.756 
15:20	65.0	65.0	65.0	77	57.6	2	5	248	0.00	29.758 
15:25	64.8	64.8	64.8	78	57.8	1	6	248	0.00	29.757 
15:30	64.5	64.5	64.5	80	58.2	1	3	270	0.01	29.761 
15:35	64.0	64.0	64.0	82	58.4	1	4	270	0.01	29.770 
15:40	63.5	63.5	63.5	84	58.6	0	2	248	0.03	29.779 
15:45	62.9	62.9	62.9	86	58.6	0	2	248	0.05	29.791 
15:50	62.1	62.1	62.1	88	58.5	1	2	248	0.08	29.796 
15:55	61.8	61.8	61.8	90	58.8	1	4	270	0.12	29.800 
16:00	61.5	61.5	61.5	91	58.8	2	8	248	0.05	29.781 
16:05	61.3	61.3	61.3	92	59.0	2	4	248	0.01	29.783 
16:10	61.3	61.3	61.3	93	59.3	2	6	248	0.01	29.785 
16:15	61.2	61.2	61.2	93	59.2	3	11	248	0.01	29.788 
16:20	61.2	61.2	61.2	93	59.2	3	5	248	0.01	29.791 
16:25	61.2	61.2	61.2	94	59.5	2	5	248	0.00	29.786 
16:30	61.2	61.2	61.2	94	59.5	2	6	248	0.00	29.782 
16:35	61.2	61.2	61.2	94	59.5	1	5	248	0.01	29.782 
16:40	61.2	61.2	61.2	94	59.5	2	5	248	0.00	29.781 
16:45	61.0	61.0	61.0	94	59.3	1	3	270	0.01	29.780 
16:50	61.0	61.0	61.0	95	59.6	1	5	248	0.00	29.780 
16:55	61.0	61.0	61.0	95	59.6	1	3	248	0.00	29.779 
17:00	60.9	60.9	60.9	95	59.5	1	3	248	0.00	29.777 
17:05	60.9	60.9	60.9	95	59.5	1	3	248	0.00	29.777 
17:10	60.9	60.9	60.9	95	59.5	1	4	248	0.00	29.781 
17:15	60.9	60.9	60.9	95	59.5	0	2	248	0.00	29.779 
17:20	60.9	60.9	60.9	95	59.5	1	5	248	0.00	29.773 
17:25	60.9	60.9	60.9	95	59.5	1	4	248	0.00	29.774 
17:30	60.9	60.9	60.9	95	59.5	0	3	248	0.00	29.772 
17:35	60.9	60.9	60.9	95	59.5	1	2	248	0.00	29.769 
17:40	60.7	60.7	60.7	95	59.3	0	3	248	0.00	29.770 
17:45	60.7	60.7	60.7	95	59.3	0	1	248	0.00	29.768 
17:50	60.5	60.5	60.5	95	59.1	0	0	---	0.00	29.765 
17:55	60.5	60.5	60.5	95	59.1	0	0	---	0.00	29.764 
18:00	60.4	60.4	60.4	95	59.0	0	1	248	0.00	29.765 
18:05	60.2	60.2	60.2	95	58.8	0	1	248	0.01	29.767 
18:10	60.2	60.2	60.2	95	58.8	0	1	248	0.00	29.775 
18:15	60.2	60.2	60.2	96	59.1	0	1	248	0.01	29.767 
18:20	60.2	60.2	60.2	96	59.1	0	1	248	0.00	29.764 
18:25	60.2	60.2	60.2	95	58.8	0	0	---	0.00	29.762 
18:30	60.1	60.1	60.1	95	58.7	0	0	---	0.00	29.760 
18:35	59.9	59.9	59.9	96	58.8	0	0	---	0.00	29.764 
18:40	59.9	59.9	59.9	96	58.8	0	0	---	0.01	29.771 
18:45	59.9	59.9	59.9	96	58.8	0	0	---	0.03	29.778 
18:50	59.9	59.9	59.9	96	58.8	0	0	---	0.03	29.775 
18:55	59.9	59.9	59.9	96	58.8	0	0	---	0.02	29.771 
19:00	59.9	59.9	59.9	96	58.8	0	1	248	0.00	29.768 
19:05	59.9	59.9	59.9	96	58.8	0	1	248	0.00	29.766 
19:10	59.9	59.9	59.9	96	58.8	0	1	248	0.00	29.761 
19:15	60.1	60.1	60.1	96	59.0	0	1	248	0.00	29.754 
19:20	60.1	60.1	60.1	96	59.0	0	3	112	0.00	29.754 
19:25	60.1	60.1	60.1	96	59.0	0	2	135	0.00	29.753 
19:30	59.9	59.9	59.9	96	58.8	0	2	135	0.00	29.751 
19:35	59.6	59.6	59.6	96	58.5	1	3	135	0.01	29.752 
19:40	59.5	59.5	59.5	96	58.4	0	0	---	0.01	29.753 
19:45	59.5	59.5	59.5	96	58.4	1	2	135	0.06	29.776 
19:50	59.5	59.5	59.5	96	58.4	0	1	135	0.11	29.756 
19:55	59.5	59.5	59.5	96	58.4	0	0	---	0.00	29.752 
20:00	59.5	59.5	59.5	96	58.4	0	1	135	0.00	29.747 
20:05	59.5	59.5	59.5	96	58.4	0	0	---	0.00	29.740 
20:10	59.5	59.5	59.5	96	58.4	0	1	135	0.00	29.736 
20:15	59.5	59.5	59.5	96	58.4	0	1	135	0.01	29.734 
20:20	59.3	59.3	59.3	96	58.2	0	1	135	0.00	29.731 
20:25	59.2	59.2	59.2	96	58.1	0	1	135	0.00	29.724 
20:30	59.0	59.0	59.0	96	57.9	0	2	135	0.00	29.719 
20:35	59.0	59.0	59.0	96	57.9	1	3	135	0.00	29.713 
20:40	59.0	59.0	59.0	96	57.9	1	3	135	0.00	29.706 
20:45	58.9	58.9	58.9	96	57.8	1	3	135	0.00	29.704 
20:50	58.9	58.9	58.9	96	57.8	1	3	45	0.00	29.701 
20:55	58.7	58.7	58.7	96	57.6	0	1	45	0.00	29.702 
21:00	58.7	58.7	58.7	97	57.8	1	2	45	0.00	29.692 
21:05	58.7	58.7	58.7	97	57.8	0	1	45	0.00	29.690 
21:10	58.6	58.6	58.6	97	57.7	0	1	45	0.00	29.692 
21:15	58.6	58.6	58.6	97	57.7	0	1	45	0.00	29.689 
21:20	58.4	58.4	58.4	97	57.5	0	0	---	0.00	29.687 
21:25	58.3	58.3	58.3	97	57.5	0	1	45	0.00	29.688 
21:30	58.1	58.1	58.1	97	57.3	0	2	45	0.00	29.685 
21:35	58.0	58.0	58.0	97	57.2	1	2	45	0.00	29.679 
21:40	58.0	58.0	58.0	97	57.2	1	2	45	0.00	29.674 
21:45	57.8	57.8	57.8	97	57.0	0	2	45	0.00	29.671 
21:50	57.8	57.8	57.8	97	57.0	0	2	45	0.00	29.670 
21:55	57.6	57.6	57.6	97	56.8	1	3	45	0.00	29.666 
22:00	57.6	57.6	57.6	97	56.8	1	3	112	0.00	29.661 
22:05	57.8	57.8	57.8	97	57.0	1	3	112	0.00	29.655 
22:10	58.0	58.0	58.0	97	57.2	1	4	112	0.00	29.654 
22:15	58.4	58.4	58.4	97	57.5	1	5	292	0.01	29.656 
22:20	59.5	59.5	59.5	97	58.6	3	9	248	0.01	29.655 
22:25	60.2	60.2	60.2	97	59.3	5	10	270	0.01	29.666 
22:30	60.4	60.4	60.4	97	59.5	2	6	270	0.03	29.677 
22:35	59.8	59.8	59.8	97	58.9	0	3	270	0.00	29.675 
22:40	59.3	59.3	59.3	96	58.2	1	3	248	0.01	29.681 
22:45	59.3	59.3	59.3	96	58.2	0	1	248	0.01	29.671 
22:50	59.5	59.5	59.5	96	58.4	1	4	270	0.01	29.680 
22:55	59.8	59.8	59.8	96	58.7	4	11	270	0.14	29.719 
23:00	59.5	59.5	59.5	96	58.4	3	7	270	0.06	29.715 
23:05	59.2	59.2	59.2	96	58.1	3	6	270	0.01	29.714 
23:10	59.0	59.0	59.0	96	57.9	3	9	292	0.02	29.715 
23:15	58.9	58.9	58.9	96	57.8	2	9	270	0.02	29.705 
23:20	58.9	58.9	58.9	96	57.8	2	5	248	0.02	29.702 
23:25	58.7	58.7	58.7	96	57.6	2	4	248	0.01	29.703 
23:30	58.6	58.6	58.6	96	57.5	3	6	270	0.02	29.701 
23:35	58.3	58.3	58.3	96	57.2	3	10	270	0.02	29.701 
23:40	58.1	58.1	58.1	96	57.0	3	9	270	0.02	29.700 
23:45	58.0	58.0	58.0	96	56.9	4	12	270	0.02	29.704 
23:50	57.6	57.6	57.6	96	56.5	4	12	270	0.01	29.701 
23:55	57.5	57.5	57.5	96	56.4	4	10	270	0.01	29.701 

CoCoRaHS
IN-AL-39
A2 Web Hosting
Creative Commons License
GoDaddy
search engine by freefind advanced

loaded 2018-11-20 03:30:41 • last modified 2010-11-18 10:43:29
Privacy PolicyDisclaimer
• wx.awcolley.com is powered by PmWiki v.2002016 •
• all content (unless otherwise noted) © 2018 A W Colley